createdAt,value
2022-11-03T00:01:49.064Z,59.90
2022-11-03T00:04:17.719Z,59.76
2022-11-03T00:06:46.937Z,60.02
2022-11-03T00:09:15.172Z,60.22
2022-11-03T00:11:43.291Z,60.29
2022-11-03T00:14:10.825Z,60.28
2022-11-03T00:16:38.426Z,60.01
2022-11-03T00:19:07.517Z,60.32
2022-11-03T00:21:34.987Z,60.26
2022-11-03T00:24:02.685Z,60.40
2022-11-03T00:26:30.887Z,60.67
2022-11-03T00:29:00.483Z,60.48
2022-11-03T00:31:28.705Z,61.52
2022-11-03T00:33:56.269Z,62.04
2022-11-03T00:36:25.839Z,62.58
2022-11-03T00:38:53.407Z,62.79
2022-11-03T00:41:21.281Z,63.38
2022-11-03T00:43:48.903Z,63.64
2022-11-03T00:46:16.404Z,63.57
2022-11-03T00:48:43.917Z,63.73
2022-11-03T00:51:12.367Z,63.71
2022-11-03T00:53:42.438Z,63.50
2022-11-03T00:56:11.454Z,63.63
2022-11-03T00:58:38.919Z,63.83
2022-11-03T01:01:07.479Z,63.91
2022-11-03T01:03:35.925Z,63.91
2022-11-03T01:06:21.002Z,63.91
2022-11-03T01:08:49.792Z,63.90
2022-11-03T01:11:36.375Z,64.00
2022-11-03T01:14:03.854Z,64.06
2022-11-03T01:16:31.325Z,63.96
2022-11-03T01:18:58.862Z,64.03
2022-11-03T01:21:26.315Z,63.93
2022-11-03T01:23:55.081Z,64.08
2022-11-03T01:26:22.540Z,63.79
2022-11-03T01:28:50.100Z,63.87
2022-11-03T01:31:18.727Z,63.91
2022-11-03T01:33:46.631Z,63.82
2022-11-03T01:36:14.524Z,63.89
2022-11-03T01:38:41.989Z,63.78
2022-11-03T01:41:11.719Z,64.04
2022-11-03T01:43:39.648Z,63.77
2022-11-03T01:46:09.380Z,63.82
2022-11-03T01:48:37.064Z,63.90
2022-11-03T01:51:05.516Z,63.68
2022-11-03T01:53:32.981Z,63.72
2022-11-03T01:56:00.536Z,63.73
2022-11-03T01:58:30.296Z,63.65
2022-11-03T02:00:59.256Z,64.02
2022-11-03T02:03:27.135Z,63.93
2022-11-03T02:05:54.572Z,63.83
2022-11-03T02:08:23.232Z,63.79
2022-11-03T02:10:50.698Z,63.74
2022-11-03T02:13:20.059Z,63.58
2022-11-03T02:15:48.965Z,63.96
2022-11-03T02:18:16.952Z,63.73
2022-11-03T02:20:44.411Z,63.80
2022-11-03T02:23:21.377Z,63.77
2022-11-03T02:25:51.062Z,63.86
2022-11-03T02:28:19.406Z,63.53
2022-11-03T02:30:50.132Z,63.76
2022-11-03T02:33:40.655Z,63.57
2022-11-03T02:36:12.493Z,63.75
2022-11-03T02:38:44.199Z,63.55
2022-11-03T02:41:12.963Z,63.58
2022-11-03T02:43:40.448Z,63.69
2022-11-03T02:46:07.922Z,63.72
2022-11-03T02:48:35.396Z,63.79
2022-11-03T02:51:04.312Z,63.83
2022-11-03T02:56:01.660Z,63.65
2022-11-03T02:58:33.192Z,63.81
2022-11-03T03:01:02.561Z,63.56
2022-11-03T03:03:31.552Z,63.75
2022-11-03T03:08:27.141Z,63.62
2022-11-03T03:10:54.576Z,63.63
2022-11-03T03:13:22.928Z,63.67
2022-11-03T03:15:58.520Z,63.75
2022-11-03T03:18:27.834Z,63.43
2022-11-03T03:20:57.351Z,63.43
2022-11-03T03:23:26.079Z,63.64
2022-11-03T03:25:55.902Z,63.51
2022-11-03T03:30:52.684Z,63.69
2022-11-03T03:33:20.174Z,63.52
2022-11-03T03:35:49.071Z,63.74
2022-11-03T03:38:17.751Z,63.44
2022-11-03T03:40:45.271Z,63.68
2022-11-03T03:43:12.808Z,63.63
2022-11-03T03:45:40.257Z,63.55
2022-11-03T03:48:09.142Z,63.55
2022-11-03T03:50:38.621Z,63.45
2022-11-03T03:53:07.232Z,63.55
2022-11-03T03:55:35.799Z,63.63
2022-11-03T03:58:03.904Z,63.59
2022-11-03T04:00:31.680Z,63.55
2022-11-03T04:02:59.161Z,63.60
2022-11-03T04:05:28.129Z,63.68
2022-11-03T04:07:55.607Z,63.67
2022-11-03T04:10:24.079Z,63.70
2022-11-03T04:15:56.655Z,63.84
2022-11-03T04:18:41.751Z,63.60
2022-11-03T04:21:29.833Z,63.55
2022-11-03T04:23:57.304Z,63.65
2022-11-03T04:26:24.781Z,63.57
2022-11-03T04:28:52.342Z,63.67
2022-11-03T04:31:20.010Z,63.46
2022-11-03T04:33:47.555Z,63.40
2022-11-03T04:36:18.194Z,63.36
2022-11-03T04:38:45.819Z,63.41
2022-11-03T04:41:15.676Z,63.36
2022-11-03T04:43:43.215Z,63.56
2022-11-03T04:46:11.420Z,63.54
2022-11-03T04:48:38.878Z,63.62
2022-11-03T04:51:12.423Z,63.61
2022-11-03T04:53:41.197Z,63.47
2022-11-03T04:56:13.732Z,63.39
2022-11-03T04:58:41.225Z,63.63
2022-11-03T05:01:11.290Z,63.45
2022-11-03T05:03:38.841Z,63.62
2022-11-03T05:06:11.478Z,63.45
2022-11-03T05:08:38.966Z,63.50
2022-11-03T05:11:13.354Z,63.24
2022-11-03T05:13:40.843Z,63.58
2022-11-03T05:16:09.143Z,63.42
2022-11-03T05:18:37.809Z,63.49
2022-11-03T05:21:06.739Z,63.47
2022-11-03T05:23:38.203Z,63.49
2022-11-03T05:26:06.135Z,63.20
2022-11-03T05:28:36.909Z,63.45
2022-11-03T05:31:10.770Z,63.55
2022-11-03T05:33:38.269Z,63.39
2022-11-03T05:36:09.318Z,63.68
2022-11-03T05:38:36.774Z,63.40
2022-11-03T05:41:04.247Z,63.38
2022-11-03T05:43:31.686Z,63.47
2022-11-03T05:46:02.601Z,63.25
2022-11-03T05:48:32.337Z,63.21
2022-11-03T05:51:01.021Z,63.41
2022-11-03T05:53:30.855Z,63.33
2022-11-03T05:56:00.408Z,63.23
2022-11-03T05:58:29.612Z,63.35
2022-11-03T06:00:57.755Z,63.25
2022-11-03T06:03:28.314Z,63.36
2022-11-03T06:05:55.854Z,63.43
2022-11-03T06:08:25.597Z,63.40
2022-11-03T06:10:54.419Z,63.61
2022-11-03T06:13:24.306Z,63.48
2022-11-03T06:15:54.420Z,63.42
2022-11-03T06:18:24.199Z,63.41
2022-11-03T06:20:55.590Z,63.55
2022-11-03T06:23:23.083Z,63.58
2022-11-03T06:25:51.053Z,64.57
2022-11-03T06:28:19.739Z,64.45
2022-11-03T06:30:47.259Z,64.46
2022-11-03T06:33:16.436Z,64.30
2022-11-03T06:35:44.520Z,64.25
2022-11-03T06:38:16.862Z,64.41
2022-11-03T06:40:45.450Z,64.51
2022-11-03T06:43:15.872Z,64.67
2022-11-03T06:45:48.553Z,64.29
2022-11-03T06:48:16.217Z,64.52
2022-11-03T06:50:45.007Z,64.54
2022-11-03T06:53:12.561Z,64.51
2022-11-03T06:55:41.382Z,64.53
2022-11-03T06:58:14.745Z,64.60
2022-11-03T07:00:45.912Z,64.45
2022-11-03T07:03:19.143Z,64.57
2022-11-03T07:05:46.638Z,64.83
2022-11-03T07:08:18.105Z,64.48
2022-11-03T07:10:46.899Z,64.47
2022-11-03T07:13:15.375Z,64.65
2022-11-03T07:15:43.147Z,64.50
2022-11-03T07:18:17.757Z,64.55
2022-11-03T07:20:45.294Z,64.39
2022-11-03T07:23:14.905Z,64.61
2022-11-03T07:25:42.386Z,64.63
2022-11-03T07:28:11.180Z,64.55
2022-11-03T07:30:38.662Z,64.16
2022-11-03T07:33:11.841Z,64.35
2022-11-03T07:36:13.096Z,64.32
2022-11-03T07:38:29.023Z,64.32
2022-11-03T07:43:28.782Z,64.20
2022-11-03T07:45:57.154Z,64.33
2022-11-03T07:48:26.096Z,64.16
2022-11-03T07:50:54.335Z,64.00
2022-11-03T07:53:26.111Z,64.29
2022-11-03T07:55:54.867Z,64.02
2022-11-03T07:58:24.534Z,64.12
2022-11-03T08:00:57.545Z,64.00
2022-11-03T08:03:46.059Z,64.06
2022-11-03T08:06:14.706Z,64.03
2022-11-03T08:08:44.724Z,63.97
2022-11-03T08:13:39.636Z,64.03
2022-11-03T08:16:08.913Z,63.76
2022-11-03T08:18:36.997Z,63.86
2022-11-03T08:21:04.687Z,63.86
2022-11-03T08:23:32.502Z,63.90
2022-11-03T08:26:00.245Z,63.88
2022-11-03T08:28:27.709Z,63.87
2022-11-03T08:30:55.241Z,63.89
2022-11-03T08:33:24.034Z,63.80
2022-11-03T08:35:51.508Z,63.86
2022-11-03T08:38:18.945Z,63.70
2022-11-03T08:40:49.064Z,63.72
2022-11-03T08:43:18.790Z,63.74
2022-11-03T08:45:46.726Z,63.63
2022-11-03T08:48:14.197Z,63.74
2022-11-03T08:50:43.000Z,63.80
2022-11-03T08:53:10.441Z,63.66
2022-11-03T08:55:37.924Z,63.74
2022-11-03T08:58:05.790Z,63.55
2022-11-03T09:00:38.285Z,63.62
2022-11-03T09:03:08.157Z,63.59
2022-11-03T09:05:36.998Z,63.49
2022-11-03T09:10:54.138Z,63.25
2022-11-03T09:13:21.669Z,63.45
2022-11-03T09:15:49.128Z,63.52
2022-11-03T09:18:16.768Z,63.50
2022-11-03T09:20:44.221Z,63.50
2022-11-03T09:23:13.334Z,63.47
2022-11-03T09:25:40.828Z,62.98
2022-11-03T09:28:08.667Z,63.05
2022-11-03T09:30:36.780Z,62.84
2022-11-03T09:33:05.174Z,62.83
2022-11-03T09:35:32.912Z,61.83
2022-11-03T09:38:00.610Z,61.09
2022-11-03T09:40:29.417Z,61.26
2022-11-03T09:42:57.444Z,60.49
2022-11-03T09:45:25.138Z,60.50
2022-11-03T09:47:52.905Z,59.84
2022-11-03T09:50:21.264Z,60.46
2022-11-03T09:52:52.491Z,59.51
2022-11-03T09:55:22.515Z,59.32
2022-11-03T09:57:52.986Z,59.07
2022-11-03T10:00:21.636Z,58.39
2022-11-03T10:02:49.454Z,58.00
2022-11-03T10:05:20.198Z,57.68
2022-11-03T10:07:47.750Z,58.57
2022-11-03T10:10:19.712Z,58.61
2022-11-03T10:12:47.338Z,57.78
2022-11-03T10:15:16.674Z,57.18
2022-11-03T10:17:44.239Z,57.63
2022-11-03T10:20:12.263Z,57.00
2022-11-03T10:22:41.204Z,57.32
2022-11-03T10:25:28.934Z,57.10
2022-11-03T10:28:16.455Z,56.95
2022-11-03T10:33:40.661Z,56.30
2022-11-03T10:36:23.947Z,57.22
2022-11-03T10:38:51.426Z,56.73
2022-11-03T10:41:19.700Z,57.36
2022-11-03T10:44:01.536Z,57.01
2022-11-03T10:46:51.290Z,57.06
2022-11-03T10:49:19.264Z,57.23
2022-11-03T10:51:48.739Z,56.32
2022-11-03T10:54:16.774Z,56.25
2022-11-03T10:56:44.449Z,56.27
2022-11-03T10:59:14.360Z,56.36
2022-11-03T11:01:43.302Z,55.36
2022-11-03T11:04:11.532Z,55.64
2022-11-03T11:11:33.765Z,54.35
2022-11-03T11:14:23.604Z,54.39
2022-11-03T11:16:52.954Z,54.07
2022-11-03T11:19:20.431Z,53.59
2022-11-03T11:21:58.470Z,53.12
2022-11-03T11:24:57.353Z,52.94
2022-11-03T11:27:59.847Z,52.53
2022-11-03T11:31:00.043Z,52.52
2022-11-03T11:33:29.401Z,52.87
2022-11-03T11:36:29.763Z,52.34
2022-11-03T11:38:57.896Z,52.61
2022-11-03T11:42:02.841Z,52.73
2022-11-03T11:45:06.075Z,52.57
2022-11-03T11:47:49.173Z,52.64
2022-11-03T11:50:31.715Z,52.63
2022-11-03T11:53:05.770Z,52.65
2022-11-03T11:55:38.107Z,52.54
2022-11-03T11:58:07.177Z,52.73
2022-11-03T12:00:35.360Z,52.69
2022-11-03T12:03:03.534Z,52.61
2022-11-03T12:05:33.191Z,52.52
2022-11-03T12:08:00.696Z,52.40
2022-11-03T12:10:28.980Z,52.54
2022-11-03T12:12:56.683Z,52.44
2022-11-03T12:15:49.762Z,52.32
2022-11-03T12:18:31.969Z,52.38
2022-11-03T12:21:04.485Z,52.17
2022-11-03T12:23:42.270Z,52.47
2022-11-03T12:26:17.202Z,52.34
2022-11-03T12:28:44.704Z,52.35
2022-11-03T12:31:12.509Z,52.30
2022-11-03T12:33:40.010Z,52.38
2022-11-03T12:36:09.540Z,52.33
2022-11-03T12:38:37.263Z,52.11
2022-11-03T12:41:18.711Z,52.38
2022-11-03T12:43:46.287Z,52.54
2022-11-03T12:46:13.819Z,52.68
2022-11-03T12:48:43.868Z,52.66
2022-11-03T12:51:13.868Z,52.85
2022-11-03T12:53:42.052Z,52.90
2022-11-03T12:56:09.782Z,52.95
2022-11-03T12:58:37.319Z,53.29
2022-11-03T13:01:05.093Z,53.73
2022-11-03T13:03:32.744Z,53.87
2022-11-03T13:06:00.216Z,53.67
2022-11-03T13:08:29.165Z,53.76
2022-11-03T13:10:56.643Z,53.85
2022-11-03T13:13:24.143Z,53.67
2022-11-03T13:15:52.993Z,54.03
2022-11-03T13:18:20.551Z,53.89
2022-11-03T13:20:48.022Z,54.11
2022-11-03T13:23:18.722Z,54.24
2022-11-03T13:25:50.911Z,54.45
2022-11-03T13:28:18.750Z,54.42
2022-11-03T13:30:49.204Z,54.44
2022-11-03T13:33:16.715Z,54.52
2022-11-03T13:35:44.311Z,54.52
2022-11-03T13:38:11.814Z,54.48
2022-11-03T13:43:28.901Z,55.71
2022-11-03T13:45:58.532Z,55.24
2022-11-03T13:51:16.772Z,55.32
2022-11-03T13:56:32.211Z,55.43
2022-11-03T14:07:11.400Z,55.75
2022-11-03T14:09:38.984Z,55.77
2022-11-03T14:12:24.810Z,55.60
2022-11-03T14:14:53.704Z,55.67
2022-11-03T14:19:52.383Z,57.02
2022-11-03T14:22:20.320Z,56.36
2022-11-03T14:24:47.828Z,56.42
2022-11-03T14:27:15.995Z,56.40
2022-11-03T14:29:44.030Z,56.39
2022-11-03T14:32:12.868Z,56.39
2022-11-03T14:34:40.415Z,56.49
2022-11-03T14:37:08.857Z,56.42
2022-11-03T14:39:36.935Z,56.42
2022-11-03T14:42:03.775Z,56.49
2022-11-03T14:44:31.546Z,56.64
2022-11-03T14:46:59.002Z,56.72
2022-11-03T14:49:27.857Z,56.64
2022-11-03T14:51:56.785Z,56.81
2022-11-03T14:54:24.327Z,56.83
2022-11-03T14:56:51.843Z,56.66
2022-11-03T14:59:19.322Z,56.75
2022-11-03T15:01:49.063Z,56.66
2022-11-03T15:04:16.595Z,56.94
2022-11-03T15:06:45.750Z,56.89
2022-11-03T15:09:14.667Z,56.90
2022-11-03T15:11:42.429Z,57.00
2022-11-03T15:14:10.002Z,56.96
2022-11-03T15:16:37.704Z,58.06
2022-11-03T15:19:05.462Z,58.04
2022-11-03T15:21:32.976Z,57.93
2022-11-03T15:26:49.250Z,57.91
2022-11-03T15:29:16.917Z,57.90
2022-11-03T15:31:47.835Z,57.93
2022-11-03T15:34:15.831Z,57.76
2022-11-03T15:36:43.281Z,57.93
2022-11-03T15:39:13.145Z,57.91
2022-11-03T15:44:08.019Z,58.08
2022-11-03T15:46:36.093Z,57.73
2022-11-03T15:49:04.029Z,57.84
2022-11-03T15:51:31.788Z,57.82
2022-11-03T15:53:59.558Z,58.00
2022-11-03T15:56:28.506Z,57.91
2022-11-03T15:58:56.304Z,57.61
2022-11-03T16:01:24.113Z,57.68
2022-11-03T16:03:51.876Z,57.83
2022-11-03T16:06:20.049Z,57.59
2022-11-03T16:08:47.615Z,57.52
2022-11-03T16:11:15.102Z,57.88
2022-11-03T16:13:43.979Z,57.72
2022-11-03T16:16:11.886Z,57.77
2022-11-03T16:18:39.483Z,57.72
2022-11-03T16:21:07.080Z,57.69
2022-11-03T16:23:34.583Z,57.71
2022-11-03T16:26:04.393Z,57.64
2022-11-03T16:28:31.935Z,57.76
2022-11-03T16:31:00.762Z,57.72
2022-11-03T16:33:28.239Z,57.88
2022-11-03T16:35:55.767Z,58.02
2022-11-03T16:38:23.254Z,57.97
2022-11-03T16:40:50.733Z,57.85
2022-11-03T16:43:18.218Z,57.95
2022-11-03T16:45:45.689Z,58.01
2022-11-03T16:48:14.548Z,57.84
2022-11-03T16:50:44.598Z,57.86
2022-11-03T16:53:13.239Z,58.02
2022-11-03T16:55:40.710Z,57.84
2022-11-03T16:58:08.184Z,57.92
2022-11-03T17:03:02.983Z,57.87
2022-11-03T17:05:31.740Z,57.92
2022-11-03T17:07:59.189Z,58.05
2022-11-03T17:10:27.557Z,57.86
2022-11-03T17:12:55.016Z,57.98
2022-11-03T17:15:22.522Z,57.80
2022-11-03T17:17:49.996Z,57.90
2022-11-03T17:20:17.573Z,58.05
2022-11-03T17:22:47.515Z,57.93
2022-11-03T17:25:14.993Z,57.85
2022-11-03T17:27:43.457Z,57.97
2022-11-03T17:30:13.572Z,58.03
2022-11-03T17:32:41.723Z,58.03
2022-11-03T17:35:12.820Z,57.90
2022-11-03T17:37:40.453Z,57.88
2022-11-03T17:40:14.761Z,58.10
2022-11-03T17:42:42.253Z,58.06
2022-11-03T17:45:12.282Z,57.71
2022-11-03T17:47:39.953Z,57.66
2022-11-03T17:50:08.078Z,57.84
2022-11-03T17:52:35.641Z,58.09
2022-11-03T17:55:04.551Z,57.60
2022-11-03T17:57:33.687Z,57.86
2022-11-03T18:00:01.589Z,57.90
2022-11-03T18:02:30.417Z,57.68
2022-11-03T18:05:00.447Z,57.84
2022-11-03T18:07:28.733Z,57.72
2022-11-03T18:09:56.895Z,57.93
2022-11-03T18:12:43.537Z,57.82
2022-11-03T18:15:15.661Z,57.89
2022-11-03T18:17:43.229Z,57.80
2022-11-03T18:20:14.641Z,57.80
2022-11-03T18:22:42.423Z,57.81
2022-11-03T18:25:13.851Z,57.86
2022-11-03T18:27:41.463Z,58.23
2022-11-03T18:30:10.350Z,58.08
2022-11-03T18:32:39.350Z,58.20
2022-11-03T18:35:07.295Z,58.28
2022-11-03T18:37:34.871Z,58.09
2022-11-03T18:40:03.467Z,58.28
2022-11-03T18:42:30.985Z,58.40
2022-11-03T18:45:02.431Z,58.44
2022-11-03T18:47:30.664Z,59.44
2022-11-03T18:49:59.489Z,59.52
2022-11-03T18:52:27.778Z,59.41
2022-11-03T18:54:55.286Z,59.36
2022-11-03T18:57:23.583Z,59.20
2022-11-03T18:59:51.060Z,59.28
2022-11-03T19:02:19.628Z,59.34
2022-11-03T19:04:47.356Z,59.24
2022-11-03T19:07:17.648Z,59.20
2022-11-03T19:09:45.253Z,59.16
2022-11-03T19:12:13.275Z,59.31
2022-11-03T19:14:41.193Z,59.35
2022-11-03T19:17:22.368Z,59.45
2022-11-03T19:19:50.785Z,59.47
2022-11-03T19:22:20.324Z,59.56
2022-11-03T19:24:47.786Z,59.55
2022-11-03T19:27:16.456Z,59.68
2022-11-03T19:29:43.924Z,60.07
2022-11-03T19:32:13.273Z,59.97
2022-11-03T19:34:40.894Z,59.57
2022-11-03T19:37:09.676Z,59.79
2022-11-03T19:39:39.693Z,60.58
2022-11-03T19:42:33.051Z,61.28
2022-11-03T19:45:01.049Z,60.92
2022-11-03T19:47:32.592Z,60.13
2022-11-03T19:50:01.042Z,60.27
2022-11-03T19:52:30.457Z,60.30
2022-11-03T19:54:59.545Z,60.18
2022-11-03T19:57:27.031Z,59.83
2022-11-03T19:59:59.080Z,60.03
2022-11-03T20:02:28.033Z,60.03
2022-11-03T20:04:55.962Z,59.89
2022-11-03T20:07:28.167Z,59.93
2022-11-03T20:10:00.847Z,59.73
2022-11-03T20:12:30.593Z,59.66
2022-11-03T20:14:58.129Z,59.53
2022-11-03T20:17:27.311Z,59.60
2022-11-03T20:19:55.245Z,59.47
2022-11-03T20:22:25.480Z,59.47
2022-11-03T20:24:53.208Z,59.61
2022-11-03T20:27:22.675Z,59.49
2022-11-03T20:29:50.527Z,59.28
2022-11-03T20:32:21.446Z,59.25
2022-11-03T20:34:49.140Z,59.43
2022-11-03T20:37:18.058Z,59.22
2022-11-03T20:39:46.076Z,59.19
2022-11-03T20:42:18.985Z,59.02
2022-11-03T20:44:48.023Z,59.34
2022-11-03T20:47:17.429Z,59.15
2022-11-03T20:49:45.340Z,59.20
2022-11-03T20:52:13.657Z,59.20
2022-11-03T20:54:41.300Z,59.01
2022-11-03T20:57:10.227Z,59.21
2022-11-03T20:59:38.856Z,59.35
2022-11-03T21:02:12.120Z,59.02
2022-11-03T21:04:40.684Z,59.12
2022-11-03T21:07:10.559Z,59.22
2022-11-03T21:09:38.645Z,59.14
2022-11-03T21:12:07.407Z,59.21
2022-11-03T21:14:35.934Z,59.43
2022-11-03T21:17:29.711Z,59.47
2022-11-03T21:20:02.096Z,59.44
2022-11-03T21:25:22.014Z,59.42
2022-11-03T21:27:50.244Z,59.41
2022-11-03T21:30:18.932Z,59.44
2022-11-03T21:32:48.301Z,59.53
2022-11-03T21:35:19.437Z,59.61
2022-11-03T21:37:47.491Z,59.43
2022-11-03T21:40:15.653Z,59.53
2022-11-03T21:43:01.734Z,59.62
2022-11-03T21:45:30.313Z,59.77
2022-11-03T21:48:15.928Z,59.91
2022-11-03T21:50:46.348Z,59.75
2022-11-03T21:53:14.956Z,60.81
2022-11-03T21:55:42.515Z,60.31
2022-11-03T21:58:10.860Z,60.51
2022-11-03T22:00:40.079Z,60.57
2022-11-03T22:03:09.137Z,60.37
2022-11-03T22:05:38.322Z,60.36
2022-11-03T22:08:09.528Z,60.57
2022-11-03T22:10:39.617Z,60.51
2022-11-03T22:13:07.624Z,60.72
2022-11-03T22:15:53.267Z,60.59
2022-11-03T22:18:21.458Z,60.84
2022-11-03T22:21:06.805Z,60.83
2022-11-03T22:23:53.235Z,62.42
2022-11-03T22:26:38.641Z,62.07
2022-11-03T22:29:23.751Z,61.72
2022-11-03T22:31:51.345Z,61.81
2022-11-03T22:34:36.675Z,61.56
2022-11-03T22:37:04.224Z,61.75
2022-11-03T22:39:50.955Z,61.79
2022-11-03T22:42:36.200Z,61.61
2022-11-03T22:45:21.475Z,61.73
2022-11-03T22:47:57.748Z,61.52
2022-11-03T22:50:25.664Z,61.54
2022-11-03T22:52:53.288Z,61.73
2022-11-03T22:55:21.396Z,61.84
2022-11-03T22:57:49.001Z,61.79
2022-11-03T23:00:17.074Z,61.86
2022-11-03T23:02:45.073Z,61.79
2022-11-03T23:05:12.784Z,61.74
2022-11-03T23:07:41.632Z,61.87
2022-11-03T23:10:09.744Z,61.77
2022-11-03T23:12:38.689Z,61.99
2022-11-03T23:15:27.160Z,62.01
2022-11-03T23:18:12.630Z,62.17
2022-11-03T23:20:57.623Z,62.12
2022-11-03T23:23:42.733Z,61.94
2022-11-03T23:26:10.205Z,62.86
2022-11-03T23:28:38.966Z,62.67
2022-11-03T23:31:06.705Z,62.63
2022-11-03T23:33:34.166Z,62.62
2022-11-03T23:36:03.849Z,62.78
2022-11-03T23:38:32.468Z,62.77
2022-11-03T23:41:02.278Z,63.46
2022-11-03T23:43:29.772Z,63.24
2022-11-03T23:46:16.010Z,63.18
2022-11-03T23:48:49.284Z,63.13
2022-11-03T23:51:17.347Z,63.05
2022-11-03T23:53:45.267Z,63.31
2022-11-03T23:56:30.673Z,63.27
2022-11-03T23:58:58.133Z,63.22
